Time;durP1;ratioP1;P1;durP2;ratioP2;P2;SDS_P1;SDS_P2;PMS_P1;PMS_P2;Temp;Humidity;BMP_temperature;BMP_pressure;BME280_temperature;BME280_humidity;BME280_pressure;Samples;Min_cycle;Max_cycle;Signal;HPM_P1;HPM_P2
2023/09/26 00:01:45;;;;;;;23.67;14.70;;;;;;;;;;5097798;28;20054;-67
2023/09/26 00:04:11;;;;;;;26.87;16.40;;;;;;;;;;5097114;28;20059;-67
2023/09/26 00:06:36;;;;;;;32.20;17.30;;;;;;;;;;5095559;28;20028;-67
2023/09/26 00:09:02;;;;;;;28.57;17.10;;;;;;;;;;5093619;28;20028;-65
2023/09/26 00:11:27;;;;;;;28.80;17.80;;;;;;;;;;5111416;28;20429;-65
2023/09/26 00:13:52;;;;;;;28.47;17.80;;;;;;;;;;5107277;27;20047;-65
2023/09/26 00:16:18;;;;;;;25.57;15.10;;;;;;;;;;5098398;28;20046;-65
2023/09/26 00:18:43;;;;;;;27.23;15.40;;;;;;;;;;5108426;28;20047;-66
2023/09/26 00:21:08;;;;;;;27.83;15.07;;;;;;;;;;5096581;28;20108;-65
2023/09/26 00:23:34;;;;;;;26.03;14.93;;;;;;;;;;5096826;28;20525;-65
2023/09/26 00:26:00;;;;;;;28.60;16.60;;;;;;;;;;5095854;28;20054;-67
2023/09/26 00:28:25;;;;;;;30.60;18.03;;;;;;;;;;5095500;27;20103;-65
2023/09/26 00:30:50;;;;;;;33.27;18.67;;;;;;;;;;5106665;28;20387;-65
2023/09/26 00:33:16;;;;;;;34.87;19.87;;;;;;;;;;5102054;27;20372;-66
2023/09/26 00:35:41;;;;;;;36.53;19.87;;;;;;;;;;5099106;28;20023;-65
2023/09/26 00:38:06;;;;;;;39.70;22.00;;;;;;;;;;5104832;27;20032;-65
2023/09/26 00:40:31;;;;;;;42.50;21.60;;;;;;;;;;5097207;28;20072;-66
2023/09/26 00:43:00;;;;;;;37.33;20.87;;;;;;;;;;5092822;28;20414;-66
2023/09/26 00:45:25;;;;;;;34.40;20.33;;;;;;;;;;5092219;28;20036;-65
2023/09/26 00:47:51;;;;;;;37.27;20.60;;;;;;;;;;5096357;28;20020;-66
2023/09/26 00:50:18;;;;;;;37.83;19.87;;;;;;;;;;5095715;28;20380;-66
2023/09/26 00:52:48;;;;;;;36.83;19.67;;;;;;;;;;5094043;28;20024;-65
2023/09/26 00:55:14;;;;;;;38.27;19.93;;;;;;;;;;5093651;28;20043;-66
2023/09/26 00:57:39;;;;;;;35.30;19.13;;;;;;;;;;5091642;28;20023;-65
2023/09/26 01:03:07;;;;;;;41.13;19.07;;;;;;;;;;5091028;28;20029;-65
2023/09/26 01:05:32;;;;;;;43.20;20.80;;;;;;;;;;5096273;28;20028;-65
2023/09/26 01:07:58;;;;;;;36.77;18.43;;;;;;;;;;5096253;28;20032;-64
2023/09/26 01:10:23;;;;;;;41.37;21.33;;;;;;;;;;5096669;28;20410;-65
2023/09/26 01:12:49;;;;;;;42.67;21.43;;;;;;;;;;5093765;28;20055;-64
2023/09/26 01:15:29;;;;;;;44.10;21.90;;;;;;;;;;5087937;28;20460;-65
2023/09/26 01:17:54;;;;;;;38.80;19.83;;;;;;;;;;5106988;28;20026;-65
2023/09/26 01:20:19;;;;;;;47.20;23.40;;;;;;;;;;5078555;28;20020;-65
2023/09/26 01:22:45;;;;;;;43.73;22.80;;;;;;;;;;5085695;28;20082;-65
2023/09/26 01:25:11;;;;;;;46.33;23.10;;;;;;;;;;5075288;28;20086;-65
2023/09/26 01:27:36;;;;;;;48.33;23.17;;;;;;;;;;5085651;28;20031;-65
2023/09/26 01:30:01;;;;;;;48.07;24.73;;;;;;;;;;5094456;28;20063;-65
2023/09/26 01:32:27;;;;;;;46.20;23.50;;;;;;;;;;5089822;28;20028;-65
2023/09/26 01:34:52;;;;;;;48.50;24.40;;;;;;;;;;5080883;28;20020;-65
2023/09/26 01:37:20;;;;;;;46.33;23.10;;;;;;;;;;5081622;28;20389;-65
2023/09/26 01:39:45;;;;;;;55.70;27.37;;;;;;;;;;5084479;28;20020;-65
2023/09/26 01:42:10;;;;;;;55.77;28.10;;;;;;;;;;5091285;28;20084;-65
2023/09/26 01:44:35;;;;;;;56.67;28.77;;;;;;;;;;5075154;28;20104;-65
2023/09/26 01:47:00;;;;;;;49.97;26.13;;;;;;;;;;5074738;28;20087;-65
2023/09/26 01:49:27;;;;;;;44.70;22.83;;;;;;;;;;5081882;28;20032;-65
2023/09/26 01:51:52;;;;;;;53.00;24.80;;;;;;;;;;5089755;28;20035;-65
2023/09/26 01:54:17;;;;;;;45.37;22.40;;;;;;;;;;5080560;28;20465;-65
2023/09/26 01:56:42;;;;;;;47.57;23.60;;;;;;;;;;5079154;28;20103;-65
2023/09/26 01:59:08;;;;;;;52.90;25.47;;;;;;;;;;5093131;28;20621;-65
2023/09/26 02:01:33;;;;;;;58.93;27.53;;;;;;;;;;5081604;28;20102;-65
2023/09/26 02:03:58;;;;;;;52.33;26.13;;;;;;;;;;5092666;28;20072;-66
2023/09/26 02:06:23;;;;;;;51.93;27.20;;;;;;;;;;5074493;28;20035;-66
2023/09/26 02:08:49;;;;;;;53.03;26.47;;;;;;;;;;5077817;28;20028;-66
2023/09/26 02:11:14;;;;;;;57.13;26.50;;;;;;;;;;5081154;28;20440;-66
2023/09/26 02:13:39;;;;;;;49.33;24.73;;;;;;;;;;5074618;28;20023;-65
2023/09/26 02:16:09;;;;;;;52.53;25.23;;;;;;;;;;5080999;28;20487;-66
2023/09/26 02:18:34;;;;;;;53.77;25.90;;;;;;;;;;5077092;28;20476;-62
2023/09/26 02:20:59;;;;;;;56.77;26.33;;;;;;;;;;5082951;28;20031;-61
2023/09/26 02:23:25;;;;;;;53.30;26.37;;;;;;;;;;5073552;28;20024;-61
2023/09/26 02:25:51;;;;;;;51.27;25.27;;;;;;;;;;5082371;28;20118;-62
2023/09/26 02:28:16;;;;;;;46.97;22.73;;;;;;;;;;5092339;28;20089;-66
2023/09/26 02:30:42;;;;;;;49.13;23.83;;;;;;;;;;5094116;28;20035;-67
2023/09/26 02:33:07;;;;;;;51.10;24.13;;;;;;;;;;5093554;28;20122;-67
2023/09/26 02:35:32;;;;;;;48.23;23.93;;;;;;;;;;5092271;28;20059;-67
2023/09/26 02:37:57;;;;;;;61.40;27.10;;;;;;;;;;5091334;28;20456;-64
2023/09/26 02:40:23;;;;;;;54.13;25.03;;;;;;;;;;5090070;28;20067;-64
2023/09/26 02:42:50;;;;;;;58.63;26.00;;;;;;;;;;5093008;28;20107;-62
2023/09/26 02:45:15;;;;;;;61.03;27.60;;;;;;;;;;5093582;28;20047;-62
2023/09/26 02:47:41;;;;;;;56.37;26.17;;;;;;;;;;5084515;28;20059;-63
2023/09/26 02:50:07;;;;;;;58.30;28.07;;;;;;;;;;5079790;28;20020;-63
2023/09/26 02:52:32;;;;;;;66.63;29.30;;;;;;;;;;5086859;28;20039;-63
2023/09/26 02:54:58;;;;;;;66.00;26.43;;;;;;;;;;5093707;28;20024;-63
2023/09/26 02:57:23;;;;;;;74.33;30.17;;;;;;;;;;5085632;28;20064;-62
2023/09/26 02:59:48;;;;;;;67.93;28.30;;;;;;;;;;5079937;28;20020;-62
2023/09/26 03:02:14;;;;;;;60.83;26.70;;;;;;;;;;5081497;28;20468;-62
2023/09/26 03:04:39;;;;;;;64.97;29.37;;;;;;;;;;5089211;28;20192;-61
2023/09/26 03:07:04;;;;;;;58.43;27.00;;;;;;;;;;5076520;28;20029;-62
2023/09/26 03:09:33;;;;;;;61.13;27.70;;;;;;;;;;5076218;28;20107;-63
2023/09/26 03:11:58;;;;;;;81.50;32.40;;;;;;;;;;5093278;28;20035;-63
2023/09/26 03:14:23;;;;;;;77.07;31.40;;;;;;;;;;5078118;28;20056;-63
2023/09/26 03:16:49;;;;;;;85.07;33.47;;;;;;;;;;5084984;28;20042;-63
2023/09/26 03:19:17;;;;;;;88.23;34.30;;;;;;;;;;5078178;28;20048;-63
2023/09/26 03:21:42;;;;;;;86.03;33.03;;;;;;;;;;5075729;28;20026;-63
2023/09/26 03:24:08;;;;;;;99.57;38.57;;;;;;;;;;5084721;28;20383;-63
2023/09/26 03:26:33;;;;;;;103.37;38.57;;;;;;;;;;5077222;28;20073;-63
2023/09/26 03:28:58;;;;;;;96.20;38.87;;;;;;;;;;5103562;28;20031;-62
2023/09/26 03:31:23;;;;;;;107.13;40.77;;;;;;;;;;5103391;28;20024;-63
2023/09/26 03:33:50;;;;;;;107.20;41.07;;;;;;;;;;5089647;28;20016;-64
2023/09/26 03:36:15;;;;;;;103.53;39.93;;;;;;;;;;5082180;28;20023;-63
2023/09/26 03:38:41;;;;;;;105.23;40.53;;;;;;;;;;5088675;28;20056;-64
2023/09/26 03:41:06;;;;;;;101.93;40.63;;;;;;;;;;5093270;28;20019;-61
2023/09/26 03:43:31;;;;;;;101.63;39.77;;;;;;;;;;5090485;28;20027;-60
2023/09/26 03:46:01;;;;;;;100.70;40.40;;;;;;;;;;5092304;28;20031;-61
2023/09/26 03:48:26;;;;;;;97.03;40.00;;;;;;;;;;5078325;28;20069;-62
2023/09/26 03:50:52;;;;;;;98.80;39.73;;;;;;;;;;5073139;28;20050;-61
2023/09/26 03:53:17;;;;;;;97.60;39.60;;;;;;;;;;5073949;28;20483;-60
2023/09/26 03:55:42;;;;;;;94.27;38.27;;;;;;;;;;5089722;28;20020;-61
2023/09/26 03:58:07;;;;;;;96.53;39.90;;;;;;;;;;5079651;28;20020;-62
2023/09/26 04:00:33;;;;;;;91.67;37.17;;;;;;;;;;5075734;28;20020;-61
2023/09/26 04:02:59;;;;;;;98.60;37.07;;;;;;;;;;5092419;28;20504;-61
2023/09/26 04:05:25;;;;;;;101.57;38.17;;;;;;;;;;5078093;28;20029;-61
2023/09/26 04:07:50;;;;;;;108.40;36.20;;;;;;;;;;5073861;28;20427;-61
2023/09/26 04:10:15;;;;;;;80.50;32.60;;;;;;;;;;5091729;28;20059;-63
2023/09/26 04:12:41;;;;;;;87.30;34.17;;;;;;;;;;5076143;28;20029;-61
2023/09/26 04:15:06;;;;;;;79.10;33.03;;;;;;;;;;5076739;28;20475;-63
2023/09/26 04:17:31;;;;;;;72.97;32.07;;;;;;;;;;5080593;28;20024;-63
2023/09/26 04:19:57;;;;;;;73.90;31.93;;;;;;;;;;5072502;28;20487;-62
2023/09/26 04:22:22;;;;;;;97.83;38.63;;;;;;;;;;5076195;28;20051;-63
2023/09/26 04:24:48;;;;;;;101.33;39.07;;;;;;;;;;5088311;28;20028;-62
2023/09/26 04:27:13;;;;;;;101.33;37.73;;;;;;;;;;5097926;28;20031;-64
2023/09/26 04:29:38;;;;;;;95.60;37.33;;;;;;;;;;5093343;28;20070;-63
2023/09/26 04:32:03;;;;;;;89.57;35.03;;;;;;;;;;5084331;28;20082;-63
2023/09/26 04:34:29;;;;;;;88.70;34.80;;;;;;;;;;5076317;28;20032;-64
2023/09/26 04:36:54;;;;;;;85.70;33.47;;;;;;;;;;5090149;28;21269;-63
2023/09/26 04:39:20;;;;;;;82.27;33.50;;;;;;;;;;5084799;28;20028;-63
2023/09/26 04:41:45;;;;;;;84.20;34.23;;;;;;;;;;5091879;28;20099;-64
2023/09/26 04:44:11;;;;;;;97.10;36.40;;;;;;;;;;5096741;28;20020;-63
2023/09/26 04:46:36;;;;;;;90.43;35.13;;;;;;;;;;5094066;28;20019;-63
2023/09/26 04:49:01;;;;;;;98.17;37.57;;;;;;;;;;5095537;28;20103;-63
2023/09/26 04:51:26;;;;;;;105.37;37.57;;;;;;;;;;5094652;28;20024;-64
2023/09/26 04:53:52;;;;;;;104.80;37.70;;;;;;;;;;5095932;28;20028;-64
2023/09/26 04:56:17;;;;;;;107.63;37.63;;;;;;;;;;5097719;28;20025;-64
2023/09/26 04:58:42;;;;;;;107.63;39.03;;;;;;;;;;5115911;28;20030;-64
2023/09/26 05:01:11;;;;;;;107.10;38.93;;;;;;;;;;5085559;28;20028;-62
2023/09/26 05:03:37;;;;;;;113.93;39.90;;;;;;;;;;5089348;28;20510;-63
2023/09/26 05:06:02;;;;;;;116.63;41.07;;;;;;;;;;5095464;28;20024;-63
2023/09/26 05:08:27;;;;;;;120.00;42.77;;;;;;;;;;5093633;28;20035;-67
2023/09/26 05:10:53;;;;;;;123.60;43.40;;;;;;;;;;5095639;28;20059;-67
2023/09/26 05:13:18;;;;;;;131.47;43.17;;;;;;;;;;5095503;28;20028;-67
2023/09/26 05:15:43;;;;;;;116.33;40.67;;;;;;;;;;5089014;28;20024;-66
2023/09/26 05:18:08;;;;;;;131.40;42.70;;;;;;;;;;5074883;28;20024;-67
2023/09/26 05:20:35;;;;;;;139.17;45.33;;;;;;;;;;5084620;28;20020;-67
2023/09/26 05:23:00;;;;;;;132.13;45.33;;;;;;;;;;5078383;28;20021;-66
2023/09/26 05:25:26;;;;;;;139.40;47.17;;;;;;;;;;5093581;28;20438;-66
2023/09/26 05:27:51;;;;;;;134.37;46.07;;;;;;;;;;5077261;28;20024;-66
2023/09/26 05:30:16;;;;;;;135.33;45.27;;;;;;;;;;5078342;28;20040;-66
2023/09/26 05:32:42;;;;;;;117.07;43.67;;;;;;;;;;5079796;28;20024;-63
2023/09/26 05:35:08;;;;;;;118.13;45.20;;;;;;;;;;5080019;28;20015;-62
2023/09/26 05:37:34;;;;;;;123.23;44.37;;;;;;;;;;5095085;28;20048;-63
2023/09/26 05:39:59;;;;;;;121.57;45.00;;;;;;;;;;5081595;28;20032;-63
2023/09/26 05:42:24;;;;;;;117.77;46.00;;;;;;;;;;5074765;28;20542;-62
2023/09/26 05:44:50;;;;;;;112.10;44.07;;;;;;;;;;5087360;28;20365;-63
2023/09/26 05:47:15;;;;;;;110.90;44.97;;;;;;;;;;5090028;28;20028;-62
2023/09/26 05:49:40;;;;;;;87.73;40.63;;;;;;;;;;5088833;28;20073;-63
2023/09/26 05:52:05;;;;;;;80.90;39.03;;;;;;;;;;5074462;28;20095;-62
2023/09/26 05:54:31;;;;;;;72.97;36.20;;;;;;;;;;5087822;28;20055;-62
2023/09/26 05:56:56;;;;;;;68.27;35.07;;;;;;;;;;5089965;28;20050;-62
2023/09/26 05:59:21;;;;;;;55.23;31.03;;;;;;;;;;5095015;28;20020;-62
2023/09/26 06:01:47;;;;;;;42.03;26.53;;;;;;;;;;5100083;28;20387;-62
2023/09/26 06:04:12;;;;;;;34.00;22.63;;;;;;;;;;5075512;28;20070;-62
2023/09/26 06:06:37;;;;;;;25.63;17.17;;;;;;;;;;5090518;28;20024;-61
2023/09/26 06:09:03;;;;;;;20.80;14.48;;;;;;;;;;5082990;28;20029;-62
2023/09/26 06:11:29;;;;;;;16.67;11.60;;;;;;;;;;5095582;28;20036;-60
2023/09/26 06:13:54;;;;;;;13.48;10.93;;;;;;;;;;5081965;28;20031;-60
2023/09/26 06:16:19;;;;;;;11.50;9.45;;;;;;;;;;5097691;28;20452;-60
2023/09/26 06:18:47;;;;;;;12.57;8.40;;;;;;;;;;5092212;28;20031;-64
2023/09/26 06:21:14;;;;;;;12.18;7.28;;;;;;;;;;5097652;28;20476;-63
2023/09/26 06:23:39;;;;;;;15.27;6.75;;;;;;;;;;5091719;28;20031;-64
2023/09/26 06:26:04;;;;;;;9.25;6.50;;;;;;;;;;5099232;28;20452;-64
2023/09/26 06:28:30;;;;;;;12.27;5.70;;;;;;;;;;5092415;28;20039;-64
2023/09/26 06:30:56;;;;;;;9.52;5.88;;;;;;;;;;5088579;28;20020;-63
2023/09/26 06:33:21;;;;;;;10.82;5.80;;;;;;;;;;5076634;28;20487;-63
2023/09/26 06:35:46;;;;;;;9.52;5.35;;;;;;;;;;5086184;28;20020;-63
2023/09/26 06:38:11;;;;;;;10.23;5.35;;;;;;;;;;5078567;28;20016;-63
2023/09/26 06:40:37;;;;;;;10.80;5.20;;;;;;;;;;5085198;28;20018;-64
2023/09/26 06:43:02;;;;;;;11.52;5.38;;;;;;;;;;5110273;28;20011;-64
2023/09/26 06:45:28;;;;;;;10.30;5.05;;;;;;;;;;5105936;28;20072;-65
2023/09/26 06:47:53;;;;;;;7.60;4.55;;;;;;;;;;5109662;28;20019;-65
2023/09/26 06:50:19;;;;;;;7.47;4.68;;;;;;;;;;5082245;28;20118;-65
2023/09/26 06:52:44;;;;;;;12.60;4.68;;;;;;;;;;5091038;28;20387;-65
2023/09/26 06:55:10;;;;;;;7.47;4.10;;;;;;;;;;5086928;28;20090;-65
2023/09/26 06:57:36;;;;;;;7.22;3.80;;;;;;;;;;5079228;28;20017;-65
2023/09/26 07:00:05;;;;;;;9.00;4.10;;;;;;;;;;5074288;28;20040;-64
2023/09/26 07:02:30;;;;;;;5.82;3.90;;;;;;;;;;5091088;28;20045;-64
2023/09/26 07:04:56;;;;;;;5.60;4.00;;;;;;;;;;5097670;28;20047;-63
2023/09/26 07:07:22;;;;;;;6.57;3.90;;;;;;;;;;5099041;28;20112;-64
2023/09/26 07:09:48;;;;;;;8.00;3.63;;;;;;;;;;5076702;28;20468;-63
2023/09/26 07:12:13;;;;;;;6.68;3.45;;;;;;;;;;5086581;28;20043;-63
2023/09/26 07:14:38;;;;;;;6.82;3.38;;;;;;;;;;5089502;28;20028;-63
2023/09/26 07:17:04;;;;;;;4.60;3.00;;;;;;;;;;5082238;28;20491;-64
2023/09/26 07:19:31;;;;;;;5.43;3.13;;;;;;;;;;5084211;28;20024;-64
2023/09/26 07:21:56;;;;;;;5.38;3.40;;;;;;;;;;5079900;28;20086;-63
2023/09/26 07:24:21;;;;;;;7.00;3.05;;;;;;;;;;5086563;28;20024;-64
2023/09/26 07:26:46;;;;;;;5.35;3.25;;;;;;;;;;5083976;28;20111;-63
2023/09/26 07:29:12;;;;;;;5.70;3.08;;;;;;;;;;5082312;28;20091;-59
2023/09/26 07:31:39;;;;;;;5.75;3.35;;;;;;;;;;5082460;28;20028;-59
2023/09/26 07:34:04;;;;;;;5.80;3.50;;;;;;;;;;5078228;28;20016;-59
2023/09/26 07:36:30;;;;;;;5.63;3.40;;;;;;;;;;5085226;28;20016;-59
2023/09/26 07:38:55;;;;;;;6.60;3.47;;;;;;;;;;5079214;28;20031;-60
2023/09/26 07:41:20;;;;;;;8.73;3.88;;;;;;;;;;5079150;28;20481;-59
2023/09/26 07:43:45;;;;;;;8.25;3.50;;;;;;;;;;5083163;28;20051;-59
2023/09/26 07:46:12;;;;;;;5.13;3.17;;;;;;;;;;5077707;28;20099;-59
2023/09/26 07:48:38;;;;;;;5.55;3.20;;;;;;;;;;5072459;28;20025;-58
2023/09/26 07:51:04;;;;;;;7.22;3.00;;;;;;;;;;5072573;28;20027;-59
2023/09/26 07:53:29;;;;;;;4.97;2.90;;;;;;;;;;5074294;28;20052;-58
2023/09/26 07:55:56;;;;;;;4.78;2.70;;;;;;;;;;5093237;28;20102;-59
2023/09/26 07:58:21;;;;;;;7.15;2.78;;;;;;;;;;5096632;28;20020;-59
2023/09/26 08:00:46;;;;;;;10.73;2.75;;;;;;;;;;5091923;28;20046;-59
2023/09/26 08:03:12;;;;;;;14.70;3.05;;;;;;;;;;5076361;28;20047;-58
2023/09/26 08:05:37;;;;;;;10.88;2.97;;;;;;;;;;5090105;28;20048;-58
2023/09/26 08:08:04;;;;;;;8.43;3.05;;;;;;;;;;5091114;28;20024;-59
2023/09/26 08:10:36;;;;;;;6.65;3.10;;;;;;;;;;5076493;28;20434;-59
2023/09/26 08:13:01;;;;;;;5.15;2.90;;;;;;;;;;5076227;28;20031;-59
2023/09/26 08:15:30;;;;;;;5.68;2.70;;;;;;;;;;5088057;28;20103;-60
2023/09/26 08:17:55;;;;;;;7.10;3.00;;;;;;;;;;5096468;28;20030;-59
2023/09/26 08:20:21;;;;;;;6.97;2.90;;;;;;;;;;5095968;28;20426;-59
2023/09/26 08:22:46;;;;;;;5.97;3.00;;;;;;;;;;5096812;28;20077;-58
2023/09/26 08:25:11;;;;;;;8.73;3.15;;;;;;;;;;5094479;28;20067;-59
2023/09/26 08:27:37;;;;;;;11.63;3.10;;;;;;;;;;5077202;28;20036;-59
2023/09/26 08:30:02;;;;;;;7.85;3.20;;;;;;;;;;5108097;28;20161;-60
2023/09/26 08:32:27;;;;;;;12.38;3.22;;;;;;;;;;5083279;28;20031;-59
2023/09/26 08:34:54;;;;;;;5.07;3.00;;;;;;;;;;5083988;28;20093;-59
2023/09/26 08:37:19;;;;;;;8.48;3.33;;;;;;;;;;5084732;28;20497;-59
2023/09/26 08:39:44;;;;;;;5.20;2.83;;;;;;;;;;5078726;28;20031;-64
2023/09/26 08:42:15;;;;;;;8.57;3.00;;;;;;;;;;5091896;28;20031;-64
2023/09/26 08:44:41;;;;;;;7.53;3.33;;;;;;;;;;5088194;28;20086;-65
2023/09/26 08:47:06;;;;;;;8.32;3.33;;;;;;;;;;5096223;28;20436;-65
2023/09/26 08:49:32;;;;;;;8.38;3.17;;;;;;;;;;5104770;28;20047;-64
2023/09/26 08:51:57;;;;;;;10.77;3.33;;;;;;;;;;5099845;28;20035;-65
2023/09/26 08:54:23;;;;;;;7.03;2.60;;;;;;;;;;5096116;28;20051;-65
2023/09/26 08:56:48;;;;;;;6.22;2.85;;;;;;;;;;5091305;28;20019;-65
2023/09/26 08:59:17;;;;;;;5.72;2.50;;;;;;;;;;5101826;28;20020;-65
2023/09/26 09:01:42;;;;;;;6.50;2.60;;;;;;;;;;5095836;28;20353;-65
2023/09/26 09:04:07;;;;;;;5.60;2.85;;;;;;;;;;5104266;28;20051;-66
2023/09/26 09:06:32;;;;;;;8.23;2.50;;;;;;;;;;5113119;28;20383;-66
2023/09/26 09:09:08;;;;;;;6.78;4.30;;;;;;;;;;5115439;28;20055;-66
2023/09/26 09:11:33;;;;;;;11.73;3.10;;;;;;;;;;5096513;28;20025;-66
2023/09/26 09:13:58;;;;;;;7.80;2.50;;;;;;;;;;5080868;28;20391;-67
2023/09/26 09:16:24;;;;;;;17.80;4.25;;;;;;;;;;5097447;28;20283;-66
2023/09/26 09:18:58;;;;;;;5.38;2.83;;;;;;;;;;5086848;28;20375;-66
2023/09/26 09:21:27;;;;;;;11.98;3.13;;;;;;;;;;5085514;28;20025;-67
2023/09/26 09:23:54;;;;;;;6.00;2.80;;;;;;;;;;5074430;28;20016;-66
2023/09/26 09:26:20;;;;;;;11.27;3.03;;;;;;;;;;5078260;28;20024;-66
2023/09/26 09:28:45;;;;;;;5.70;2.70;;;;;;;;;;5101750;28;20032;-66
2023/09/26 09:31:12;;;;;;;6.88;3.17;;;;;;;;;;5093473;28;20081;-66
2023/09/26 09:33:37;;;;;;;15.05;3.25;;;;;;;;;;5084958;28;20106;-66
2023/09/26 09:36:03;;;;;;;7.05;3.00;;;;;;;;;;5104756;28;20023;-67
2023/09/26 09:38:31;;;;;;;8.35;3.10;;;;;;;;;;5075199;28;20024;-66
2023/09/26 09:40:56;;;;;;;9.57;3.58;;;;;;;;;;5078238;28;20020;-66
2023/09/26 09:43:22;;;;;;;6.43;3.65;;;;;;;;;;5085421;28;20032;-66
2023/09/26 09:45:47;;;;;;;6.63;3.30;;;;;;;;;;5101946;28;20056;-66
2023/09/26 09:48:13;;;;;;;6.55;3.13;;;;;;;;;;5098542;28;20032;-66
2023/09/26 09:50:39;;;;;;;6.82;3.20;;;;;;;;;;5093164;28;20023;-66
2023/09/26 09:53:04;;;;;;;4.93;2.47;;;;;;;;;;5094445;28;20024;-65
2023/09/26 09:55:36;;;;;;;8.35;2.90;;;;;;;;;;5094992;28;20024;-65
2023/09/26 09:58:06;;;;;;;6.93;3.00;;;;;;;;;;5089898;28;20024;-65
2023/09/26 10:00:31;;;;;;;5.80;2.90;;;;;;;;;;5089889;28;20070;-66
2023/09/26 10:03:00;;;;;;;5.43;2.67;;;;;;;;;;5077230;28;20028;-65
2023/09/26 10:05:26;;;;;;;8.25;3.00;;;;;;;;;;5076524;28;20031;-67
2023/09/26 10:07:51;;;;;;;6.63;3.10;;;;;;;;;;5081515;28;20484;-65
2023/09/26 10:10:17;;;;;;;5.50;3.17;;;;;;;;;;5084413;28;20016;-64
2023/09/26 10:12:43;;;;;;;5.72;2.60;;;;;;;;;;5095647;28;20031;-63
2023/09/26 10:15:11;;;;;;;7.68;3.10;;;;;;;;;;5077097;28;20401;-65
2023/09/26 10:17:38;;;;;;;6.25;3.28;;;;;;;;;;5093513;28;20027;-65
2023/09/26 10:20:04;;;;;;;5.05;2.85;;;;;;;;;;5091801;28;20456;-64
2023/09/26 10:22:33;;;;;;;5.43;3.55;;;;;;;;;;5075977;28;20426;-64
2023/09/26 10:25:00;;;;;;;11.23;3.90;;;;;;;;;;5074017;28;20024;-65
2023/09/26 10:27:31;;;;;;;5.45;2.83;;;;;;;;;;5084523;28;20468;-64
2023/09/26 10:29:56;;;;;;;6.05;3.08;;;;;;;;;;5086515;28;20161;-64
2023/09/26 10:32:29;;;;;;;6.15;2.80;;;;;;;;;;5084982;28;20107;-64
2023/09/26 10:34:56;;;;;;;6.97;3.30;;;;;;;;;;5076424;28;20473;-64
2023/09/26 10:37:21;;;;;;;6.30;2.95;;;;;;;;;;5092738;28;20099;-65
2023/09/26 10:39:47;;;;;;;6.50;2.90;;;;;;;;;;5074202;28;20117;-67
2023/09/26 10:42:13;;;;;;;8.20;3.00;;;;;;;;;;5084451;28;20142;-67
2023/09/26 10:44:39;;;;;;;5.03;2.25;;;;;;;;;;5073610;28;20111;-67
2023/09/26 10:47:05;;;;;;;8.32;2.80;;;;;;;;;;5085353;28;20107;-67
2023/09/26 10:49:33;;;;;;;8.73;2.90;;;;;;;;;;5093788;28;20020;-66
2023/09/26 10:52:01;;;;;;;5.45;2.72;;;;;;;;;;5093992;28;20080;-66
2023/09/26 10:54:27;;;;;;;4.97;2.10;;;;;;;;;;5094051;28;20372;-66
2023/09/26 10:56:52;;;;;;;5.00;2.20;;;;;;;;;;5093442;28;20016;-66
2023/09/26 10:59:18;;;;;;;5.07;2.28;;;;;;;;;;5081628;28;20039;-66
2023/09/26 11:01:45;;;;;;;4.22;1.92;;;;;;;;;;5072913;28;20020;-61
2023/09/26 11:04:10;;;;;;;7.78;2.25;;;;;;;;;;5073181;28;20428;-62
2023/09/26 11:06:37;;;;;;;4.00;2.05;;;;;;;;;;5073202;28;20020;-60
2023/09/26 11:09:03;;;;;;;4.75;2.17;;;;;;;;;;5073577;28;20032;-61
2023/09/26 11:11:28;;;;;;;4.43;1.90;;;;;;;;;;5073283;28;20484;-60
2023/09/26 11:13:53;;;;;;;5.53;2.78;;;;;;;;;;5073017;28;20024;-61
2023/09/26 11:16:18;;;;;;;4.00;2.00;;;;;;;;;;5073184;28;20424;-60
2023/09/26 11:18:44;;;;;;;3.85;1.95;;;;;;;;;;5084125;28;20045;-61
2023/09/26 11:21:09;;;;;;;3.95;1.92;;;;;;;;;;5093392;28;20027;-60
2023/09/26 11:23:35;;;;;;;4.50;1.90;;;;;;;;;;5093581;28;20009;-61
2023/09/26 11:26:03;;;;;;;5.15;2.35;;;;;;;;;;5093252;28;20013;-60
2023/09/26 11:28:29;;;;;;;4.45;1.75;;;;;;;;;;5083772;28;20103;-61
2023/09/26 11:30:54;;;;;;;4.38;1.70;;;;;;;;;;5073795;28;20021;-61
2023/09/26 11:33:20;;;;;;;3.05;1.60;;;;;;;;;;5080954;28;20020;-61
2023/09/26 11:35:46;;;;;;;5.35;1.83;;;;;;;;;;5072456;28;20103;-60
2023/09/26 11:38:11;;;;;;;4.32;1.90;;;;;;;;;;5072896;28;20104;-60
2023/09/26 11:40:36;;;;;;;4.45;2.00;;;;;;;;;;5072964;28;20025;-61
2023/09/26 11:43:03;;;;;;;5.05;1.70;;;;;;;;;;5106282;28;20055;-61
2023/09/26 11:45:28;;;;;;;5.20;1.90;;;;;;;;;;5089383;28;20024;-61
2023/09/26 11:47:57;;;;;;;4.20;1.80;;;;;;;;;;5081170;28;20036;-61
2023/09/26 11:50:22;;;;;;;4.95;1.70;;;;;;;;;;5088569;28;20016;-61
2023/09/26 11:52:48;;;;;;;4.28;2.00;;;;;;;;;;5078467;28;20035;-62
2023/09/26 11:55:16;;;;;;;6.93;1.90;;;;;;;;;;5081577;28;20027;-61
2023/09/26 11:57:41;;;;;;;8.32;1.60;;;;;;;;;;5093508;28;20145;-61
2023/09/26 12:00:11;;;;;;;4.63;1.98;;;;;;;;;;5084634;28;20058;-61
2023/09/26 12:02:38;;;;;;;4.40;1.90;;;;;;;;;;5089096;28;20499;-61
2023/09/26 12:05:03;;;;;;;8.90;1.98;;;;;;;;;;5079446;28;20428;-62
2023/09/26 12:07:28;;;;;;;4.53;1.60;;;;;;;;;;5081505;28;20090;-61
2023/09/26 12:09:54;;;;;;;4.55;1.95;;;;;;;;;;5078750;28;20055;-60
2023/09/26 12:12:19;;;;;;;4.35;2.10;;;;;;;;;;5105345;28;20432;-60
2023/09/26 12:14:46;;;;;;;3.72;1.73;;;;;;;;;;5081827;28;20020;-62
2023/09/26 12:17:11;;;;;;;4.78;1.80;;;;;;;;;;5079980;28;20031;-60
2023/09/26 12:19:38;;;;;;;4.18;1.75;;;;;;;;;;5082393;28;20017;-60
2023/09/26 12:22:03;;;;;;;5.82;1.80;;;;;;;;;;5090040;28;20028;-61
2023/09/26 12:24:29;;;;;;;4.13;1.83;;;;;;;;;;5081997;28;20445;-61
2023/09/26 12:26:55;;;;;;;4.13;1.50;;;;;;;;;;5079290;28;20494;-62
2023/09/26 12:29:20;;;;;;;4.82;2.00;;;;;;;;;;5088358;28;20020;-61
2023/09/26 12:31:45;;;;;;;5.25;1.75;;;;;;;;;;5079500;28;20052;-61
2023/09/26 12:34:11;;;;;;;3.92;1.67;;;;;;;;;;5078265;28;20113;-61
2023/09/26 12:36:37;;;;;;;5.90;1.80;;;;;;;;;;5094183;28;20021;-60
2023/09/26 12:39:02;;;;;;;3.28;1.40;;;;;;;;;;5073489;28;20013;-62
2023/09/26 12:41:28;;;;;;;4.35;1.80;;;;;;;;;;5075792;28;20062;-62
2023/09/26 12:43:53;;;;;;;4.65;1.50;;;;;;;;;;5075419;28;20023;-62
2023/09/26 12:46:18;;;;;;;3.40;1.48;;;;;;;;;;5077846;28;20074;-61
2023/09/26 12:48:43;;;;;;;5.07;1.40;;;;;;;;;;5087194;28;20031;-61
2023/09/26 12:51:10;;;;;;;4.32;1.60;;;;;;;;;;5087029;28;20060;-62
2023/09/26 12:53:35;;;;;;;5.38;1.45;;;;;;;;;;5104788;28;20352;-62
2023/09/26 12:56:01;;;;;;;3.28;1.45;;;;;;;;;;5085014;27;20112;-60
2023/09/26 12:58:26;;;;;;;4.57;1.38;;;;;;;;;;5088946;28;20024;-63
2023/09/26 13:00:51;;;;;;;4.68;1.50;;;;;;;;;;5097376;28;20024;-61
2023/09/26 13:03:16;;;;;;;3.08;1.40;;;;;;;;;;5081383;28;20106;-61
2023/09/26 13:05:42;;;;;;;4.90;1.30;;;;;;;;;;5105652;28;20126;-62
2023/09/26 13:08:07;;;;;;;3.83;1.40;;;;;;;;;;5103540;28;20379;-61
2023/09/26 13:10:34;;;;;;;3.58;1.40;;;;;;;;;;5096932;28;20088;-62
2023/09/26 13:12:59;;;;;;;2.65;1.40;;;;;;;;;;5092245;28;20043;-62
2023/09/26 13:15:27;;;;;;;3.65;1.45;;;;;;;;;;5099463;28;20015;-61
2023/09/26 13:17:52;;;;;;;7.80;2.38;;;;;;;;;;5097307;28;20617;-61
2023/09/26 13:20:17;;;;;;;7.03;1.30;;;;;;;;;;5106507;28;20113;-64
2023/09/26 13:22:43;;;;;;;3.50;1.33;;;;;;;;;;5128957;28;20030;-68
2023/09/26 13:25:12;;;;;;;3.90;1.50;;;;;;;;;;5110730;28;20048;-68
2023/09/26 13:27:37;;;;;;;3.13;1.23;;;;;;;;;;5116902;28;20012;-68
2023/09/26 13:30:03;;;;;;;5.35;1.40;;;;;;;;;;5103767;28;20024;-68
2023/09/26 13:32:28;;;;;;;2.30;1.10;;;;;;;;;;5094128;28;20024;-69
2023/09/26 13:34:54;;;;;;;3.70;1.30;;;;;;;;;;5081908;28;20372;-68
2023/09/26 13:37:19;;;;;;;3.33;1.30;;;;;;;;;;5097643;28;20020;-68
2023/09/26 13:39:45;;;;;;;3.65;1.35;;;;;;;;;;5101748;28;20020;-68
2023/09/26 13:42:11;;;;;;;2.78;1.30;;;;;;;;;;5077006;28;20025;-69
2023/09/26 13:44:36;;;;;;;4.47;1.33;;;;;;;;;;5082212;28;20020;-68
2023/09/26 13:47:02;;;;;;;2.63;1.20;;;;;;;;;;5100210;28;20084;-67
2023/09/26 13:49:28;;;;;;;3.55;1.13;;;;;;;;;;5101778;28;20020;-67
2023/09/26 13:51:55;;;;;;;3.95;1.65;;;;;;;;;;5101703;28;20016;-61
2023/09/26 13:54:20;;;;;;;3.90;1.60;;;;;;;;;;5104540;28;20016;-61
2023/09/26 13:56:45;;;;;;;4.53;1.70;;;;;;;;;;5101576;28;20027;-62
2023/09/26 13:59:11;;;;;;;4.97;1.60;;;;;;;;;;5112051;28;20018;-62
2023/09/26 14:01:36;;;;;;;6.95;2.13;;;;;;;;;;5105256;28;20024;-62
2023/09/26 14:04:01;;;;;;;4.60;1.50;;;;;;;;;;5094395;28;20093;-62
2023/09/26 14:06:26;;;;;;;4.88;1.48;;;;;;;;;;5094580;28;20043;-62
2023/09/26 14:08:52;;;;;;;3.83;1.60;;;;;;;;;;5082922;28;20044;-62
2023/09/26 14:11:18;;;;;;;4.95;1.67;;;;;;;;;;5074489;28;20400;-63
2023/09/26 14:13:44;;;;;;;3.67;1.42;;;;;;;;;;5093221;28;20101;-64
2023/09/26 14:16:09;;;;;;;3.70;1.23;;;;;;;;;;5093740;28;20027;-62
2023/09/26 14:18:36;;;;;;;3.47;1.50;;;;;;;;;;5094639;28;20456;-67
2023/09/26 14:21:03;;;;;;;4.05;1.35;;;;;;;;;;5093140;28;20035;-67
2023/09/26 14:23:29;;;;;;;4.30;1.52;;;;;;;;;;5091157;28;20107;-63